createdAt,value
2023-08-08T00:02:43.946Z,2.22
2023-08-08T00:07:46.760Z,2.75
2023-08-08T00:12:49.272Z,3.22
2023-08-08T00:17:51.986Z,2.40
2023-08-08T00:22:54.368Z,2.70
2023-08-08T00:27:56.740Z,2.10
2023-08-08T00:32:59.418Z,2.42
2023-08-08T00:38:02.132Z,3.00
2023-08-08T00:43:04.778Z,2.47
2023-08-08T00:48:07.506Z,2.35
2023-08-08T00:53:09.928Z,2.42
2023-08-08T00:58:12.588Z,3.03
2023-08-08T01:03:15.155Z,3.20
2023-08-08T01:08:20.908Z,2.97
2023-08-08T01:13:24.871Z,3.20
2023-08-08T01:18:28.346Z,2.97
2023-08-08T01:23:55.482Z,3.10
2023-08-08T01:28:57.895Z,2.70
2023-08-08T01:34:00.380Z,2.58
2023-08-08T01:39:06.597Z,2.95
2023-08-08T01:44:09.184Z,2.78
2023-08-08T01:49:11.564Z,2.80
2023-08-08T01:54:14.017Z,3.00
2023-08-08T01:59:16.440Z,2.75
2023-08-08T02:04:19.401Z,2.38
2023-08-08T02:09:22.145Z,2.92
2023-08-08T02:14:24.658Z,2.17
2023-08-08T02:19:27.229Z,2.63
2023-08-08T02:24:30.003Z,2.72
2023-08-08T02:29:32.621Z,2.55
2023-08-08T02:34:35.986Z,2.40
2023-08-08T02:39:38.344Z,3.20
2023-08-08T02:44:40.662Z,2.83
2023-08-08T02:49:42.999Z,2.47
2023-08-08T02:54:45.628Z,2.55
2023-08-08T02:59:48.155Z,2.85
2023-08-08T03:04:50.882Z,2.13
2023-08-08T03:09:53.328Z,2.38
2023-08-08T03:14:56.008Z,2.85
2023-08-08T03:20:00.290Z,3.08
2023-08-08T03:25:04.196Z,2.13
2023-08-08T03:30:07.951Z,2.40
2023-08-08T03:35:16.345Z,2.75
2023-08-08T03:40:20.289Z,2.03
2023-08-08T03:45:22.961Z,3.17
2023-08-08T03:50:25.412Z,2.33
2023-08-08T03:55:27.774Z,2.55
2023-08-08T04:00:30.718Z,2.22
2023-08-08T04:05:33.152Z,2.28
2023-08-08T04:10:35.661Z,2.40
2023-08-08T04:15:38.054Z,2.22
2023-08-08T04:20:40.494Z,1.75
2023-08-08T04:25:42.774Z,2.60
2023-08-08T04:30:45.129Z,3.22
2023-08-08T04:35:48.713Z,2.80
2023-08-08T04:40:51.150Z,2.55
2023-08-08T04:45:53.572Z,2.83
2023-08-08T04:50:55.891Z,2.47
2023-08-08T04:55:58.302Z,2.40
2023-08-08T05:01:00.800Z,1.90
2023-08-08T05:06:04.210Z,2.50
2023-08-08T05:11:06.641Z,2.13
2023-08-08T05:16:09.110Z,2.53
2023-08-08T05:21:11.703Z,2.30
2023-08-08T05:26:14.156Z,2.05
2023-08-08T05:31:16.667Z,2.08
2023-08-08T05:36:19.143Z,2.17
2023-08-08T05:41:21.529Z,2.30
2023-08-08T05:46:23.942Z,2.10
2023-08-08T05:51:26.312Z,1.55
2023-08-08T05:56:38.778Z,2.33
2023-08-08T06:01:41.224Z,2.28
2023-08-08T06:06:43.575Z,2.00
2023-08-08T06:11:46.078Z,1.77
2023-08-08T06:16:48.646Z,1.88
2023-08-08T06:21:51.507Z,1.67
2023-08-08T06:26:54.235Z,1.80
2023-08-08T06:31:56.678Z,1.90
2023-08-08T06:36:59.365Z,1.80
2023-08-08T06:42:02.000Z,1.77
2023-08-08T06:47:15.599Z,1.90
2023-08-08T06:52:17.974Z,1.63
2023-08-08T06:57:20.562Z,1.60
2023-08-08T07:02:23.072Z,1.60
2023-08-08T07:07:26.134Z,1.75
2023-08-08T07:12:28.652Z,3.00
2023-08-08T07:17:31.169Z,1.92
2023-08-08T07:22:34.347Z,1.75
2023-08-08T07:27:36.866Z,2.33
2023-08-08T07:32:39.293Z,1.70
2023-08-08T07:37:41.705Z,2.17
2023-08-08T07:42:44.214Z,2.10
2023-08-08T07:47:46.882Z,1.65
2023-08-08T07:52:49.432Z,1.27
2023-08-08T07:57:51.863Z,2.20
2023-08-08T08:02:54.610Z,1.60
2023-08-08T08:07:57.088Z,1.55
2023-08-08T08:12:59.618Z,1.52
2023-08-08T08:18:02.213Z,1.45
2023-08-08T08:23:04.792Z,1.70
2023-08-08T08:28:07.361Z,1.55
2023-08-08T08:33:09.980Z,1.60
2023-08-08T08:38:12.588Z,1.40
2023-08-08T08:43:15.219Z,1.70
2023-08-08T08:48:20.020Z,1.88
2023-08-08T08:53:23.736Z,1.85
2023-08-08T08:58:27.168Z,1.90
2023-08-08T09:03:29.676Z,1.65
2023-08-08T09:08:32.103Z,1.63
2023-08-08T09:13:41.291Z,1.40
2023-08-08T09:18:43.922Z,1.38
2023-08-08T09:23:46.628Z,1.65
2023-08-08T09:28:49.051Z,1.58
2023-08-08T09:33:52.644Z,2.42
2023-08-08T09:38:55.727Z,1.23
2023-08-08T09:43:58.145Z,1.58
2023-08-08T09:49:00.692Z,1.40
2023-08-08T09:54:03.617Z,1.30
2023-08-08T09:59:07.300Z,1.90
2023-08-08T10:04:10.059Z,1.52
2023-08-08T10:09:13.169Z,1.58
2023-08-08T10:14:16.799Z,1.20
2023-08-08T10:19:23.675Z,1.58
2023-08-08T10:24:26.061Z,1.00
2023-08-08T10:29:29.966Z,1.52
2023-08-08T10:34:46.205Z,1.70
2023-08-08T10:39:55.080Z,1.50
2023-08-08T10:44:59.616Z,1.63
2023-08-08T10:50:15.955Z,1.38
2023-08-08T10:55:22.305Z,2.60
2023-08-08T11:00:30.869Z,1.48
2023-08-08T11:05:38.507Z,1.75
2023-08-08T11:10:43.154Z,1.38
2023-08-08T11:15:45.701Z,1.80
2023-08-08T11:20:48.623Z,1.33
2023-08-08T11:26:17.395Z,1.50
2023-08-08T11:31:14.962Z,1.60
2023-08-08T11:36:17.628Z,1.23
2023-08-08T11:41:24.546Z,1.60
2023-08-08T11:46:27.494Z,1.35
2023-08-08T11:51:30.195Z,1.30
2023-08-08T11:56:35.720Z,1.67
2023-08-08T12:01:39.900Z,1.38
2023-08-08T12:06:45.431Z,1.17
2023-08-08T12:11:48.190Z,1.40
2023-08-08T12:16:50.915Z,1.58
2023-08-08T12:21:53.660Z,1.33
2023-08-08T12:26:57.876Z,1.30
2023-08-08T12:32:00.561Z,1.10
2023-08-08T12:37:04.121Z,1.60
2023-08-08T12:42:07.192Z,1.80
2023-08-08T12:47:13.149Z,2.00
2023-08-08T12:52:17.429Z,1.30
2023-08-08T12:57:20.066Z,1.50
2023-08-08T13:02:22.455Z,1.45
2023-08-08T13:07:25.252Z,2.13
2023-08-08T13:12:27.747Z,1.10
2023-08-08T13:17:30.684Z,1.52
2023-08-08T13:22:33.193Z,1.10
2023-08-08T13:27:36.591Z,1.80
2023-08-08T13:32:39.783Z,1.08
2023-08-08T13:37:42.480Z,1.60
2023-08-08T13:42:48.942Z,1.00
2023-08-08T13:47:51.584Z,1.25
2023-08-08T13:52:54.482Z,1.05
2023-08-08T13:57:56.868Z,1.20
2023-08-08T14:03:00.188Z,1.30
2023-08-08T14:08:02.844Z,1.10
2023-08-08T14:13:06.821Z,1.00
2023-08-08T14:18:09.489Z,0.90
2023-08-08T14:23:12.746Z,0.80
2023-08-08T14:28:15.406Z,0.90
2023-08-08T14:33:18.505Z,0.70
2023-08-08T14:38:25.657Z,0.98
2023-08-08T14:43:28.099Z,0.55
2023-08-08T14:48:30.693Z,0.65
2023-08-08T14:53:34.977Z,1.23
2023-08-08T14:58:37.358Z,1.70
2023-08-08T15:03:42.481Z,1.00
2023-08-08T15:08:45.118Z,1.45
2023-08-08T15:13:47.604Z,1.77
2023-08-08T15:18:50.004Z,1.67
2023-08-08T15:23:52.602Z,1.50
2023-08-08T15:28:54.958Z,1.77
2023-08-08T15:33:57.424Z,1.10
2023-08-08T15:38:59.915Z,2.03
2023-08-08T15:44:02.243Z,0.95
2023-08-08T15:49:07.950Z,1.40
2023-08-08T15:54:10.372Z,1.30
2023-08-08T15:59:12.800Z,1.15
2023-08-08T16:04:16.349Z,1.10
2023-08-08T16:09:18.636Z,1.30
2023-08-08T16:14:21.310Z,1.02
2023-08-08T16:19:23.785Z,1.10
2023-08-08T16:24:26.535Z,1.00
2023-08-08T16:29:29.082Z,1.00
2023-08-08T16:34:32.419Z,1.10
2023-08-08T16:39:34.873Z,1.05
2023-08-08T16:44:37.637Z,1.02
2023-08-08T16:49:40.939Z,1.00
2023-08-08T16:54:43.649Z,1.35
2023-08-08T16:59:46.322Z,1.40
2023-08-08T17:04:50.410Z,1.40
2023-08-08T17:09:52.762Z,1.70
2023-08-08T17:14:55.924Z,1.58
2023-08-08T17:19:58.436Z,1.48
2023-08-08T17:25:00.990Z,2.30
2023-08-08T17:30:05.014Z,2.08
2023-08-08T17:35:08.275Z,1.75
2023-08-08T17:40:10.875Z,2.50
2023-08-08T17:45:14.221Z,4.80
2023-08-08T17:50:16.701Z,1.88
2023-08-08T17:55:19.780Z,1.90
2023-08-08T18:00:22.997Z,3.47
2023-08-08T18:05:25.748Z,1.70
2023-08-08T18:10:28.519Z,1.50
2023-08-08T18:15:31.076Z,1.40
2023-08-08T18:20:34.327Z,1.20
2023-08-08T18:25:36.883Z,1.40
2023-08-08T18:30:39.669Z,1.25
2023-08-08T18:35:42.656Z,1.30
2023-08-08T18:40:45.305Z,1.95
2023-08-08T18:45:50.748Z,1.50
2023-08-08T18:50:53.739Z,0.90
2023-08-08T18:55:56.355Z,1.17
2023-08-08T19:01:00.898Z,1.92
2023-08-08T19:06:07.320Z,2.35
2023-08-08T19:11:12.140Z,1.55
2023-08-08T19:16:15.034Z,1.50
2023-08-08T19:21:19.206Z,1.98
2023-08-08T19:26:27.233Z,1.73
2023-08-08T19:31:30.858Z,1.90
2023-08-08T19:36:34.042Z,2.20
2023-08-08T19:41:36.767Z,1.70
2023-08-08T19:46:39.372Z,2.22
2023-08-08T19:51:41.699Z,2.13
2023-08-08T19:56:44.536Z,2.00
2023-08-08T20:01:47.256Z,2.10
2023-08-08T20:06:56.854Z,1.80
2023-08-08T20:12:00.704Z,1.60
2023-08-08T20:17:04.159Z,2.00
2023-08-08T20:22:11.984Z,1.80
2023-08-08T20:27:14.971Z,2.92
2023-08-08T20:32:17.467Z,2.60
2023-08-08T20:37:20.725Z,2.70
2023-08-08T20:42:23.805Z,2.47
2023-08-08T20:47:26.906Z,3.17
2023-08-08T20:52:29.479Z,2.45
2023-08-08T20:57:34.866Z,2.60
2023-08-08T21:02:38.176Z,2.75
2023-08-08T21:07:40.944Z,2.75
2023-08-08T21:12:43.689Z,2.92
2023-08-08T21:17:47.221Z,3.28
2023-08-08T21:22:49.987Z,2.95
2023-08-08T21:27:52.825Z,3.83
2023-08-08T21:32:55.313Z,3.22
2023-08-08T21:37:57.702Z,4.13
2023-08-08T21:43:00.489Z,2.65
2023-08-08T21:48:16.349Z,3.65
2023-08-08T21:53:38.074Z,3.28
2023-08-08T21:58:40.621Z,3.15
2023-08-08T22:03:45.472Z,3.20
2023-08-08T22:08:48.669Z,3.15
2023-08-08T22:13:54.635Z,3.28
2023-08-08T22:18:57.339Z,3.53
2023-08-08T22:24:00.869Z,3.55
2023-08-08T22:29:10.570Z,3.97
2023-08-08T22:34:13.476Z,3.80
2023-08-08T22:39:19.291Z,4.43
2023-08-08T22:44:22.085Z,4.35
2023-08-08T22:49:32.618Z,4.25
2023-08-08T22:54:34.972Z,4.43
2023-08-08T22:59:37.968Z,4.20
2023-08-08T23:04:40.944Z,4.40
2023-08-08T23:09:43.843Z,5.05
2023-08-08T23:14:46.507Z,4.63
2023-08-08T23:19:49.055Z,3.60
2023-08-08T23:24:53.128Z,4.65
2023-08-08T23:29:56.018Z,4.00
2023-08-08T23:35:03.639Z,3.72
2023-08-08T23:40:11.748Z,3.50
2023-08-08T23:45:16.269Z,4.15
2023-08-08T23:50:18.872Z,3.97
2023-08-08T23:55:21.700Z,4.82
